sensor_id;sensor_type;location;lat;lon;timestamp;P1;durP1;ratioP1;P2;durP2;ratioP2
77586;SDS011;66744;49.716;17.158;2023-11-19T00:01:19;19.75;;;10.75;;
77586;SDS011;66744;49.716;17.158;2023-11-19T00:04:20;20.30;;;11.20;;
77586;SDS011;66744;49.716;17.158;2023-11-19T00:07:21;24.58;;;11.30;;
77586;SDS011;66744;49.716;17.158;2023-11-19T00:10:22;24.40;;;12.70;;
77586;SDS011;66744;49.716;17.158;2023-11-19T00:13:23;21.15;;;10.65;;
77586;SDS011;66744;49.716;17.158;2023-11-19T00:16:26;29.05;;;12.50;;
77586;SDS011;66744;49.716;17.158;2023-11-19T00:19:28;25.23;;;13.15;;
77586;SDS011;66744;49.716;17.158;2023-11-19T00:22:30;28.67;;;14.90;;
77586;SDS011;66744;49.716;17.158;2023-11-19T00:25:31;31.55;;;15.63;;
77586;SDS011;66744;49.716;17.158;2023-11-19T00:28:32;22.65;;;13.20;;
77586;SDS011;66744;49.716;17.158;2023-11-19T00:31:36;24.52;;;12.55;;
77586;SDS011;66744;49.716;17.158;2023-11-19T00:34:37;32.08;;;16.02;;
77586;SDS011;66744;49.716;17.158;2023-11-19T00:37:38;29.60;;;14.73;;
77586;SDS011;66744;49.716;17.158;2023-11-19T00:40:40;30.15;;;15.70;;
77586;SDS011;66744;49.716;17.158;2023-11-19T00:43:41;29.75;;;14.38;;
77586;SDS011;66744;49.716;17.158;2023-11-19T00:46:43;32.42;;;17.08;;
77586;SDS011;66744;49.716;17.158;2023-11-19T00:49:44;34.70;;;16.77;;
77586;SDS011;66744;49.716;17.158;2023-11-19T00:52:45;36.17;;;18.40;;
77586;SDS011;66744;49.716;17.158;2023-11-19T00:55:47;32.72;;;16.42;;
77586;SDS011;66744;49.716;17.158;2023-11-19T00:58:49;32.10;;;15.43;;
77586;SDS011;66744;49.716;17.158;2023-11-19T01:01:50;23.25;;;12.50;;
77586;SDS011;66744;49.716;17.158;2023-11-19T01:04:53;27.33;;;14.20;;
77586;SDS011;66744;49.716;17.158;2023-11-19T01:07:56;35.33;;;16.08;;
77586;SDS011;66744;49.716;17.158;2023-11-19T01:10:58;31.20;;;16.45;;
77586;SDS011;66744;49.716;17.158;2023-11-19T01:14:00;31.60;;;16.23;;
77586;SDS011;66744;49.716;17.158;2023-11-19T01:17:02;35.75;;;17.58;;
77586;SDS011;66744;49.716;17.158;2023-11-19T01:20:03;32.45;;;17.23;;
77586;SDS011;66744;49.716;17.158;2023-11-19T01:23:08;31.23;;;15.57;;
77586;SDS011;66744;49.716;17.158;2023-11-19T01:26:09;32.95;;;16.33;;
77586;SDS011;66744;49.716;17.158;2023-11-19T01:29:11;22.65;;;13.02;;
77586;SDS011;66744;49.716;17.158;2023-11-19T01:32:16;24.42;;;13.73;;
77586;SDS011;66744;49.716;17.158;2023-11-19T01:35:17;29.70;;;14.68;;
77586;SDS011;66744;49.716;17.158;2023-11-19T01:38:19;26.65;;;14.98;;
77586;SDS011;66744;49.716;17.158;2023-11-19T01:41:20;27.38;;;13.40;;
77586;SDS011;66744;49.716;17.158;2023-11-19T01:44:21;28.23;;;15.23;;
77586;SDS011;66744;49.716;17.158;2023-11-19T01:47:22;26.98;;;13.32;;
77586;SDS011;66744;49.716;17.158;2023-11-19T01:50:23;27.88;;;14.45;;
77586;SDS011;66744;49.716;17.158;2023-11-19T01:53:25;23.90;;;13.35;;
77586;SDS011;66744;49.716;17.158;2023-11-19T01:56:28;22.17;;;13.20;;
77586;SDS011;66744;49.716;17.158;2023-11-19T01:59:30;29.58;;;14.77;;
77586;SDS011;66744;49.716;17.158;2023-11-19T02:02:31;25.15;;;14.35;;
77586;SDS011;66744;49.716;17.158;2023-11-19T02:05:32;26.98;;;13.52;;
77586;SDS011;66744;49.716;17.158;2023-11-19T02:08:34;25.42;;;13.27;;
77586;SDS011;66744;49.716;17.158;2023-11-19T02:11:35;25.17;;;13.13;;
77586;SDS011;66744;49.716;17.158;2023-11-19T02:14:36;28.90;;;14.70;;
77586;SDS011;66744;49.716;17.158;2023-11-19T02:17:38;33.78;;;15.98;;
77586;SDS011;66744;49.716;17.158;2023-11-19T02:20:39;27.17;;;14.27;;
77586;SDS011;66744;49.716;17.158;2023-11-19T02:23:41;25.05;;;14.05;;
77586;SDS011;66744;49.716;17.158;2023-11-19T02:26:45;27.83;;;15.07;;
77586;SDS011;66744;49.716;17.158;2023-11-19T02:29:53;27.42;;;13.90;;
77586;SDS011;66744;49.716;17.158;2023-11-19T02:33:00;25.63;;;12.88;;
77586;SDS011;66744;49.716;17.158;2023-11-19T02:36:06;25.75;;;13.45;;
77586;SDS011;66744;49.716;17.158;2023-11-19T02:39:09;31.65;;;15.02;;
77586;SDS011;66744;49.716;17.158;2023-11-19T02:42:13;27.23;;;12.88;;
77586;SDS011;66744;49.716;17.158;2023-11-19T02:45:15;28.10;;;14.45;;
77586;SDS011;66744;49.716;17.158;2023-11-19T02:48:16;30.58;;;14.35;;
77586;SDS011;66744;49.716;17.158;2023-11-19T02:51:18;29.58;;;13.95;;
77586;SDS011;66744;49.716;17.158;2023-11-19T02:54:19;27.20;;;13.65;;
77586;SDS011;66744;49.716;17.158;2023-11-19T02:57:22;26.55;;;12.95;;
77586;SDS011;66744;49.716;17.158;2023-11-19T03:00:23;27.73;;;14.25;;
77586;SDS011;66744;49.716;17.158;2023-11-19T03:03:26;26.63;;;13.93;;
77586;SDS011;66744;49.716;17.158;2023-11-19T03:06:39;26.40;;;13.93;;
77586;SDS011;66744;49.716;17.158;2023-11-19T03:09:40;23.55;;;12.23;;
77586;SDS011;66744;49.716;17.158;2023-11-19T03:12:42;26.25;;;15.20;;
77586;SDS011;66744;49.716;17.158;2023-11-19T03:15:44;25.20;;;13.23;;
77586;SDS011;66744;49.716;17.158;2023-11-19T03:18:46;25.85;;;13.18;;
77586;SDS011;66744;49.716;17.158;2023-11-19T03:21:47;23.83;;;12.98;;
77586;SDS011;66744;49.716;17.158;2023-11-19T03:24:50;22.27;;;12.20;;
77586;SDS011;66744;49.716;17.158;2023-11-19T03:27:52;24.63;;;13.82;;
77586;SDS011;66744;49.716;17.158;2023-11-19T03:30:54;24.92;;;12.75;;
77586;SDS011;66744;49.716;17.158;2023-11-19T03:33:56;23.67;;;12.70;;
77586;SDS011;66744;49.716;17.158;2023-11-19T03:36:57;25.10;;;12.73;;
77586;SDS011;66744;49.716;17.158;2023-11-19T03:39:58;26.63;;;13.05;;
77586;SDS011;66744;49.716;17.158;2023-11-19T03:43:00;23.52;;;11.55;;
77586;SDS011;66744;49.716;17.158;2023-11-19T03:46:02;24.98;;;12.80;;
77586;SDS011;66744;49.716;17.158;2023-11-19T03:49:03;21.85;;;12.18;;
77586;SDS011;66744;49.716;17.158;2023-11-19T03:52:08;17.75;;;10.98;;
77586;SDS011;66744;49.716;17.158;2023-11-19T03:55:10;19.88;;;10.23;;
77586;SDS011;66744;49.716;17.158;2023-11-19T03:58:13;23.60;;;12.68;;
77586;SDS011;66744;49.716;17.158;2023-11-19T04:01:15;21.77;;;12.38;;
77586;SDS011;66744;49.716;17.158;2023-11-19T04:04:16;20.25;;;11.52;;
77586;SDS011;66744;49.716;17.158;2023-11-19T04:07:17;23.20;;;11.77;;
77586;SDS011;66744;49.716;17.158;2023-11-19T04:10:18;23.70;;;11.98;;
77586;SDS011;66744;49.716;17.158;2023-11-19T04:13:21;23.77;;;11.65;;
77586;SDS011;66744;49.716;17.158;2023-11-19T04:16:25;22.27;;;11.93;;
77586;SDS011;66744;49.716;17.158;2023-11-19T04:19:29;21.10;;;11.05;;
77586;SDS011;66744;49.716;17.158;2023-11-19T04:22:31;23.83;;;11.38;;
77586;SDS011;66744;49.716;17.158;2023-11-19T04:25:32;21.60;;;12.07;;
77586;SDS011;66744;49.716;17.158;2023-11-19T04:28:34;23.67;;;12.10;;
77586;SDS011;66744;49.716;17.158;2023-11-19T04:31:35;22.70;;;10.82;;
77586;SDS011;66744;49.716;17.158;2023-11-19T04:34:36;25.25;;;11.88;;
77586;SDS011;66744;49.716;17.158;2023-11-19T04:37:38;21.55;;;12.15;;
77586;SDS011;66744;49.716;17.158;2023-11-19T04:40:39;18.60;;;10.80;;
77586;SDS011;66744;49.716;17.158;2023-11-19T04:43:41;22.02;;;12.10;;
77586;SDS011;66744;49.716;17.158;2023-11-19T04:46:42;22.80;;;12.43;;
77586;SDS011;66744;49.716;17.158;2023-11-19T04:49:46;21.55;;;11.98;;
77586;SDS011;66744;49.716;17.158;2023-11-19T04:52:48;19.65;;;12.13;;
77586;SDS011;66744;49.716;17.158;2023-11-19T04:55:49;22.00;;;11.70;;
77586;SDS011;66744;49.716;17.158;2023-11-19T04:58:50;20.80;;;11.60;;
77586;SDS011;66744;49.716;17.158;2023-11-19T05:01:52;22.65;;;11.55;;
77586;SDS011;66744;49.716;17.158;2023-11-19T05:04:53;21.25;;;11.35;;
77586;SDS011;66744;49.716;17.158;2023-11-19T05:07:54;23.10;;;12.38;;
77586;SDS011;66744;49.716;17.158;2023-11-19T05:10:56;22.00;;;11.15;;
77586;SDS011;66744;49.716;17.158;2023-11-19T05:13:58;21.83;;;11.73;;
77586;SDS011;66744;49.716;17.158;2023-11-19T05:16:59;23.17;;;12.48;;
77586;SDS011;66744;49.716;17.158;2023-11-19T05:20:01;22.88;;;12.25;;
77586;SDS011;66744;49.716;17.158;2023-11-19T05:23:03;22.88;;;12.40;;
77586;SDS011;66744;49.716;17.158;2023-11-19T05:26:05;22.50;;;11.38;;
77586;SDS011;66744;49.716;17.158;2023-11-19T05:29:06;22.33;;;11.35;;
77586;SDS011;66744;49.716;17.158;2023-11-19T05:32:07;22.42;;;11.93;;
77586;SDS011;66744;49.716;17.158;2023-11-19T05:35:09;22.98;;;11.38;;
77586;SDS011;66744;49.716;17.158;2023-11-19T05:38:10;21.95;;;11.20;;
77586;SDS011;66744;49.716;17.158;2023-11-19T05:41:11;21.92;;;11.63;;
77586;SDS011;66744;49.716;17.158;2023-11-19T05:44:12;22.75;;;11.32;;
77586;SDS011;66744;49.716;17.158;2023-11-19T05:47:14;21.50;;;12.25;;
77586;SDS011;66744;49.716;17.158;2023-11-19T05:50:15;24.30;;;11.48;;
77586;SDS011;66744;49.716;17.158;2023-11-19T05:53:16;20.15;;;11.13;;
77586;SDS011;66744;49.716;17.158;2023-11-19T05:56:17;23.88;;;10.98;;
77586;SDS011;66744;49.716;17.158;2023-11-19T05:59:22;21.38;;;11.05;;
77586;SDS011;66744;49.716;17.158;2023-11-19T06:02:23;22.45;;;11.70;;
77586;SDS011;66744;49.716;17.158;2023-11-19T06:05:24;18.08;;;10.15;;
77586;SDS011;66744;49.716;17.158;2023-11-19T06:08:25;21.60;;;11.00;;
77586;SDS011;66744;49.716;17.158;2023-11-19T06:11:28;20.42;;;10.15;;
77586;SDS011;66744;49.716;17.158;2023-11-19T06:14:29;20.95;;;11.40;;
77586;SDS011;66744;49.716;17.158;2023-11-19T06:17:30;23.48;;;11.25;;
77586;SDS011;66744;49.716;17.158;2023-11-19T06:20:32;19.58;;;10.57;;
77586;SDS011;66744;49.716;17.158;2023-11-19T06:23:34;20.83;;;10.00;;
77586;SDS011;66744;49.716;17.158;2023-11-19T06:26:35;20.85;;;11.48;;
77586;SDS011;66744;49.716;17.158;2023-11-19T06:29:36;15.75;;;9.23;;
77586;SDS011;66744;49.716;17.158;2023-11-19T06:32:38;17.60;;;9.85;;
77586;SDS011;66744;49.716;17.158;2023-11-19T06:35:39;23.85;;;10.43;;
77586;SDS011;66744;49.716;17.158;2023-11-19T06:38:40;18.42;;;10.50;;
77586;SDS011;66744;49.716;17.158;2023-11-19T06:41:44;21.08;;;11.43;;
77586;SDS011;66744;49.716;17.158;2023-11-19T06:44:47;19.80;;;11.00;;
77586;SDS011;66744;49.716;17.158;2023-11-19T06:47:49;20.80;;;10.32;;
77586;SDS011;66744;49.716;17.158;2023-11-19T06:50:50;19.02;;;9.82;;
77586;SDS011;66744;49.716;17.158;2023-11-19T06:53:52;16.80;;;9.75;;
77586;SDS011;66744;49.716;17.158;2023-11-19T06:56:54;17.88;;;9.73;;
77586;SDS011;66744;49.716;17.158;2023-11-19T06:59:55;14.38;;;9.23;;
77586;SDS011;66744;49.716;17.158;2023-11-19T07:02:56;17.58;;;9.35;;
77586;SDS011;66744;49.716;17.158;2023-11-19T07:05:57;20.67;;;10.23;;
77586;SDS011;66744;49.716;17.158;2023-11-19T07:08:58;21.70;;;10.45;;
77586;SDS011;66744;49.716;17.158;2023-11-19T07:12:00;16.58;;;9.43;;
77586;SDS011;66744;49.716;17.158;2023-11-19T07:15:03;17.60;;;9.43;;
77586;SDS011;66744;49.716;17.158;2023-11-19T07:18:05;16.83;;;9.38;;
77586;SDS011;66744;49.716;17.158;2023-11-19T07:21:06;20.67;;;10.18;;
77586;SDS011;66744;49.716;17.158;2023-11-19T07:24:12;15.90;;;9.48;;
77586;SDS011;66744;49.716;17.158;2023-11-19T07:27:17;18.17;;;10.02;;
77586;SDS011;66744;49.716;17.158;2023-11-19T07:30:18;15.80;;;9.68;;
77586;SDS011;66744;49.716;17.158;2023-11-19T07:33:20;17.23;;;9.30;;
77586;SDS011;66744;49.716;17.158;2023-11-19T07:36:21;19.00;;;10.10;;
77586;SDS011;66744;49.716;17.158;2023-11-19T07:39:22;21.60;;;11.18;;
77586;SDS011;66744;49.716;17.158;2023-11-19T07:42:24;18.27;;;9.68;;
77586;SDS011;66744;49.716;17.158;2023-11-19T07:45:25;19.42;;;10.45;;
77586;SDS011;66744;49.716;17.158;2023-11-19T07:48:28;19.70;;;11.57;;
77586;SDS011;66744;49.716;17.158;2023-11-19T07:51:29;20.08;;;11.38;;
77586;SDS011;66744;49.716;17.158;2023-11-19T07:54:30;18.38;;;10.90;;
77586;SDS011;66744;49.716;17.158;2023-11-19T07:57:31;19.98;;;10.77;;
77586;SDS011;66744;49.716;17.158;2023-11-19T08:00:33;21.25;;;12.52;;
77586;SDS011;66744;49.716;17.158;2023-11-19T08:03:34;17.20;;;9.60;;
77586;SDS011;66744;49.716;17.158;2023-11-19T08:06:36;19.50;;;10.55;;
77586;SDS011;66744;49.716;17.158;2023-11-19T08:09:37;19.80;;;9.73;;
77586;SDS011;66744;49.716;17.158;2023-11-19T08:12:38;18.00;;;9.50;;
77586;SDS011;66744;49.716;17.158;2023-11-19T08:15:39;15.35;;;9.55;;
77586;SDS011;66744;49.716;17.158;2023-11-19T08:18:42;16.00;;;9.25;;
77586;SDS011;66744;49.716;17.158;2023-11-19T08:21:44;17.00;;;9.75;;
77586;SDS011;66744;49.716;17.158;2023-11-19T08:24:45;16.58;;;9.30;;
77586;SDS011;66744;49.716;17.158;2023-11-19T08:27:47;13.43;;;8.77;;
77586;SDS011;66744;49.716;17.158;2023-11-19T08:30:48;13.60;;;7.63;;
77586;SDS011;66744;49.716;17.158;2023-11-19T08:33:49;13.75;;;8.27;;
77586;SDS011;66744;49.716;17.158;2023-11-19T08:36:50;16.67;;;9.25;;
77586;SDS011;66744;49.716;17.158;2023-11-19T08:39:54;14.40;;;8.43;;
77586;SDS011;66744;49.716;17.158;2023-11-19T08:42:55;12.13;;;7.93;;
77586;SDS011;66744;49.716;17.158;2023-11-19T08:45:57;12.30;;;8.35;;
77586;SDS011;66744;49.716;17.158;2023-11-19T08:48:58;13.85;;;9.63;;
77586;SDS011;66744;49.716;17.158;2023-11-19T08:52:01;12.90;;;8.60;;
77586;SDS011;66744;49.716;17.158;2023-11-19T08:55:02;12.77;;;7.30;;
77586;SDS011;66744;49.716;17.158;2023-11-19T08:58:06;13.00;;;8.20;;
77586;SDS011;66744;49.716;17.158;2023-11-19T09:01:07;12.63;;;8.18;;
77586;SDS011;66744;49.716;17.158;2023-11-19T09:04:10;15.48;;;9.18;;
77586;SDS011;66744;49.716;17.158;2023-11-19T09:07:12;17.23;;;9.65;;
77586;SDS011;66744;49.716;17.158;2023-11-19T09:10:13;13.88;;;9.10;;
77586;SDS011;66744;49.716;17.158;2023-11-19T09:13:14;14.75;;;8.68;;
77586;SDS011;66744;49.716;17.158;2023-11-19T09:16:16;12.77;;;8.65;;
77586;SDS011;66744;49.716;17.158;2023-11-19T09:19:17;13.27;;;8.30;;
77586;SDS011;66744;49.716;17.158;2023-11-19T09:22:18;14.88;;;8.77;;
77586;SDS011;66744;49.716;17.158;2023-11-19T09:25:20;15.60;;;7.90;;
77586;SDS011;66744;49.716;17.158;2023-11-19T09:28:21;13.40;;;8.45;;
77586;SDS011;66744;49.716;17.158;2023-11-19T09:31:22;14.80;;;8.48;;
77586;SDS011;66744;49.716;17.158;2023-11-19T09:34:23;15.27;;;9.27;;
77586;SDS011;66744;49.716;17.158;2023-11-19T09:37:24;13.43;;;8.18;;
77586;SDS011;66744;49.716;17.158;2023-11-19T09:40:25;16.25;;;9.73;;
77586;SDS011;66744;49.716;17.158;2023-11-19T09:43:27;13.40;;;8.57;;
77586;SDS011;66744;49.716;17.158;2023-11-19T09:46:29;13.52;;;8.70;;
77586;SDS011;66744;49.716;17.158;2023-11-19T09:49:31;14.63;;;8.32;;
77586;SDS011;66744;49.716;17.158;2023-11-19T09:52:33;13.93;;;8.55;;
77586;SDS011;66744;49.716;17.158;2023-11-19T09:55:34;11.73;;;7.57;;
77586;SDS011;66744;49.716;17.158;2023-11-19T09:58:35;15.25;;;9.70;;
77586;SDS011;66744;49.716;17.158;2023-11-19T10:01:37;13.75;;;8.45;;
77586;SDS011;66744;49.716;17.158;2023-11-19T10:04:39;13.88;;;9.07;;
77586;SDS011;66744;49.716;17.158;2023-11-19T10:07:42;17.25;;;9.73;;
77586;SDS011;66744;49.716;17.158;2023-11-19T10:10:45;16.15;;;9.25;;
77586;SDS011;66744;49.716;17.158;2023-11-19T10:13:46;13.82;;;8.82;;
77586;SDS011;66744;49.716;17.158;2023-11-19T10:16:49;17.70;;;9.07;;
77586;SDS011;66744;49.716;17.158;2023-11-19T10:19:50;14.13;;;7.57;;
77586;SDS011;66744;49.716;17.158;2023-11-19T10:22:54;15.15;;;9.32;;
77586;SDS011;66744;49.716;17.158;2023-11-19T10:26:02;15.88;;;8.48;;
77586;SDS011;66744;49.716;17.158;2023-11-19T10:29:05;13.50;;;9.15;;
77586;SDS011;66744;49.716;17.158;2023-11-19T10:32:07;13.27;;;9.10;;
77586;SDS011;66744;49.716;17.158;2023-11-19T10:35:08;11.93;;;7.93;;
77586;SDS011;66744;49.716;17.158;2023-11-19T10:38:15;13.43;;;8.88;;
77586;SDS011;66744;49.716;17.158;2023-11-19T10:41:26;12.75;;;8.25;;
77586;SDS011;66744;49.716;17.158;2023-11-19T10:44:32;12.85;;;7.55;;
77586;SDS011;66744;49.716;17.158;2023-11-19T10:47:36;13.43;;;7.47;;
77586;SDS011;66744;49.716;17.158;2023-11-19T10:50:41;13.65;;;8.27;;
77586;SDS011;66744;49.716;17.158;2023-11-19T10:53:43;15.52;;;7.32;;
77586;SDS011;66744;49.716;17.158;2023-11-19T10:56:47;15.40;;;9.00;;
77586;SDS011;66744;49.716;17.158;2023-11-19T10:59:59;20.98;;;11.07;;
77586;SDS011;66744;49.716;17.158;2023-11-19T11:03:09;18.27;;;10.13;;
77586;SDS011;66744;49.716;17.158;2023-11-19T11:06:15;16.17;;;9.90;;
77586;SDS011;66744;49.716;17.158;2023-11-19T11:09:17;14.90;;;8.40;;
77586;SDS011;66744;49.716;17.158;2023-11-19T11:12:20;11.82;;;7.93;;
77586;SDS011;66744;49.716;17.158;2023-11-19T11:15:23;13.32;;;8.05;;
77586;SDS011;66744;49.716;17.158;2023-11-19T11:18:28;12.10;;;7.82;;
77586;SDS011;66744;49.716;17.158;2023-11-19T11:21:29;13.73;;;9.05;;
77586;SDS011;66744;49.716;17.158;2023-11-19T11:24:49;12.13;;;7.93;;
77586;SDS011;66744;49.716;17.158;2023-11-19T11:31:45;14.80;;;7.93;;
77586;SDS011;66744;49.716;17.158;2023-11-19T11:38:15;10.00;;;6.60;;
77586;SDS011;66744;49.716;17.158;2023-11-19T11:41:22;11.88;;;7.20;;
77586;SDS011;66744;49.716;17.158;2023-11-19T11:48:06;13.90;;;7.75;;
77586;SDS011;66744;49.716;17.158;2023-11-19T11:51:11;13.02;;;7.10;;
77586;SDS011;66744;49.716;17.158;2023-11-19T11:57:23;12.25;;;7.75;;
77586;SDS011;66744;49.716;17.158;2023-11-19T12:00:30;10.02;;;6.45;;
77586;SDS011;66744;49.716;17.158;2023-11-19T12:03:38;11.10;;;6.38;;
77586;SDS011;66744;49.716;17.158;2023-11-19T12:06:40;10.85;;;6.60;;
77586;SDS011;66744;49.716;17.158;2023-11-19T12:09:42;7.70;;;5.50;;
77586;SDS011;66744;49.716;17.158;2023-11-19T12:12:56;12.13;;;6.25;;
77586;SDS011;66744;49.716;17.158;2023-11-19T12:19:03;9.32;;;6.10;;
77586;SDS011;66744;49.716;17.158;2023-11-19T12:22:10;11.10;;;6.65;;
77586;SDS011;66744;49.716;17.158;2023-11-19T12:25:12;9.07;;;5.53;;
77586;SDS011;66744;49.716;17.158;2023-11-19T12:28:14;9.55;;;5.70;;
77586;SDS011;66744;49.716;17.158;2023-11-19T12:31:18;7.80;;;5.28;;
77586;SDS011;66744;49.716;17.158;2023-11-19T12:34:19;10.68;;;6.65;;
77586;SDS011;66744;49.716;17.158;2023-11-19T12:37:25;8.55;;;4.82;;
77586;SDS011;66744;49.716;17.158;2023-11-19T12:40:26;8.98;;;6.10;;
77586;SDS011;66744;49.716;17.158;2023-11-19T12:43:29;7.72;;;5.22;;
77586;SDS011;66744;49.716;17.158;2023-11-19T12:46:31;9.48;;;6.40;;
77586;SDS011;66744;49.716;17.158;2023-11-19T12:49:33;12.52;;;7.20;;
77586;SDS011;66744;49.716;17.158;2023-11-19T12:52:37;15.30;;;8.38;;
77586;SDS011;66744;49.716;17.158;2023-11-19T12:55:39;11.85;;;6.63;;
77586;SDS011;66744;49.716;17.158;2023-11-19T12:58:40;10.07;;;5.97;;
77586;SDS011;66744;49.716;17.158;2023-11-19T13:05:19;11.32;;;6.05;;
77586;SDS011;66744;49.716;17.158;2023-11-19T13:08:35;9.02;;;6.45;;
77586;SDS011;66744;49.716;17.158;2023-11-19T13:11:39;9.40;;;5.72;;
77586;SDS011;66744;49.716;17.158;2023-11-19T13:14:42;11.50;;;6.55;;
77586;SDS011;66744;49.716;17.158;2023-11-19T13:17:45;10.07;;;5.32;;
77586;SDS011;66744;49.716;17.158;2023-11-19T13:20:48;11.23;;;7.07;;
77586;SDS011;66744;49.716;17.158;2023-11-19T13:23:50;12.93;;;7.47;;
77586;SDS011;66744;49.716;17.158;2023-11-19T13:26:51;10.32;;;6.47;;
77586;SDS011;66744;49.716;17.158;2023-11-19T13:29:53;12.93;;;7.20;;
77586;SDS011;66744;49.716;17.158;2023-11-19T13:32:54;16.60;;;8.48;;
77586;SDS011;66744;49.716;17.158;2023-11-19T13:35:56;11.43;;;7.22;;
77586;SDS011;66744;49.716;17.158;2023-11-19T13:38:57;11.20;;;7.93;;
77586;SDS011;66744;49.716;17.158;2023-11-19T13:41:59;13.38;;;7.75;;
77586;SDS011;66744;49.716;17.158;2023-11-19T13:45:02;11.98;;;6.57;;
77586;SDS011;66744;49.716;17.158;2023-11-19T13:48:05;13.15;;;8.60;;
77586;SDS011;66744;49.716;17.158;2023-11-19T13:51:06;12.48;;;7.45;;
77586;SDS011;66744;49.716;17.158;2023-11-19T13:54:07;14.20;;;7.57;;
77586;SDS011;66744;49.716;17.158;2023-11-19T13:57:12;10.27;;;6.35;;
77586;SDS011;66744;49.716;17.158;2023-11-19T14:00:13;11.88;;;8.05;;
77586;SDS011;66744;49.716;17.158;2023-11-19T14:03:17;14.20;;;8.75;;
77586;SDS011;66744;49.716;17.158;2023-11-19T14:06:18;11.18;;;7.38;;
77586;SDS011;66744;49.716;17.158;2023-11-19T14:09:19;11.13;;;7.40;;
77586;SDS011;66744;49.716;17.158;2023-11-19T14:12:20;13.45;;;9.27;;
77586;SDS011;66744;49.716;17.158;2023-11-19T14:15:22;15.27;;;9.82;;
77586;SDS011;66744;49.716;17.158;2023-11-19T14:18:23;14.85;;;8.65;;
77586;SDS011;66744;49.716;17.158;2023-11-19T14:21:24;12.45;;;7.78;;
77586;SDS011;66744;49.716;17.158;2023-11-19T14:24:28;11.80;;;7.50;;
77586;SDS011;66744;49.716;17.158;2023-11-19T14:27:29;12.80;;;8.25;;
77586;SDS011;66744;49.716;17.158;2023-11-19T14:30:30;12.63;;;8.30;;
77586;SDS011;66744;49.716;17.158;2023-11-19T14:33:32;13.45;;;8.38;;
77586;SDS011;66744;49.716;17.158;2023-11-19T14:36:35;14.88;;;9.18;;
77586;SDS011;66744;49.716;17.158;2023-11-19T14:39:36;14.32;;;9.02;;
77586;SDS011;66744;49.716;17.158;2023-11-19T14:42:38;18.75;;;11.48;;
77586;SDS011;66744;49.716;17.158;2023-11-19T14:45:42;21.20;;;12.73;;
77586;SDS011;66744;49.716;17.158;2023-11-19T14:48:43;16.90;;;10.90;;
77586;SDS011;66744;49.716;17.158;2023-11-19T14:51:44;20.80;;;12.02;;
77586;SDS011;66744;49.716;17.158;2023-11-19T14:54:45;21.65;;;13.05;;
77586;SDS011;66744;49.716;17.158;2023-11-19T14:57:47;20.77;;;10.90;;
77586;SDS011;66744;49.716;17.158;2023-11-19T15:00:54;21.55;;;13.30;;
77586;SDS011;66744;49.716;17.158;2023-11-19T15:03:55;17.27;;;10.18;;
77586;SDS011;66744;49.716;17.158;2023-11-19T15:06:56;20.45;;;12.70;;
77586;SDS011;66744;49.716;17.158;2023-11-19T15:10:00;16.65;;;10.70;;
77586;SDS011;66744;49.716;17.158;2023-11-19T15:13:03;15.13;;;9.25;;
77586;SDS011;66744;49.716;17.158;2023-11-19T15:16:05;17.98;;;12.77;;
77586;SDS011;66744;49.716;17.158;2023-11-19T15:19:06;17.88;;;10.80;;
77586;SDS011;66744;49.716;17.158;2023-11-19T15:22:09;24.10;;;15.43;;
77586;SDS011;66744;49.716;17.158;2023-11-19T15:25:12;18.92;;;11.50;;
77586;SDS011;66744;49.716;17.158;2023-11-19T15:28:14;17.25;;;10.38;;
77586;SDS011;66744;49.716;17.158;2023-11-19T15:31:15;19.05;;;11.23;;
77586;SDS011;66744;49.716;17.158;2023-11-19T15:34:17;16.73;;;9.75;;
77586;SDS011;66744;49.716;17.158;2023-11-19T15:37:19;15.18;;;9.63;;
77586;SDS011;66744;49.716;17.158;2023-11-19T15:40:21;19.88;;;12.07;;
77586;SDS011;66744;49.716;17.158;2023-11-19T15:43:22;17.13;;;11.23;;
77586;SDS011;66744;49.716;17.158;2023-11-19T15:46:23;18.60;;;11.80;;
77586;SDS011;66744;49.716;17.158;2023-11-19T15:49:24;21.15;;;13.45;;
77586;SDS011;66744;49.716;17.158;2023-11-19T15:52:28;20.42;;;13.13;;
77586;SDS011;66744;49.716;17.158;2023-11-19T15:55:31;25.75;;;15.15;;
77586;SDS011;66744;49.716;17.158;2023-11-19T15:58:32;22.55;;;12.70;;
77586;SDS011;66744;49.716;17.158;2023-11-19T16:01:34;23.00;;;14.23;;
77586;SDS011;66744;49.716;17.158;2023-11-19T16:04:35;24.77;;;13.50;;
77586;SDS011;66744;49.716;17.158;2023-11-19T16:07:36;24.45;;;14.27;;
77586;SDS011;66744;49.716;17.158;2023-11-19T16:10:37;27.55;;;16.10;;
77586;SDS011;66744;49.716;17.158;2023-11-19T16:13:46;25.70;;;14.77;;
77586;SDS011;66744;49.716;17.158;2023-11-19T16:16:50;22.02;;;12.88;;
77586;SDS011;66744;49.716;17.158;2023-11-19T16:19:53;21.05;;;13.32;;
77586;SDS011;66744;49.716;17.158;2023-11-19T16:23:00;23.70;;;14.40;;
77586;SDS011;66744;49.716;17.158;2023-11-19T16:26:05;26.27;;;15.55;;
77586;SDS011;66744;49.716;17.158;2023-11-19T16:29:06;29.90;;;17.05;;
77586;SDS011;66744;49.716;17.158;2023-11-19T16:32:08;29.55;;;17.38;;
77586;SDS011;66744;49.716;17.158;2023-11-19T16:35:10;25.33;;;17.00;;
77586;SDS011;66744;49.716;17.158;2023-11-19T16:38:11;26.10;;;15.90;;
77586;SDS011;66744;49.716;17.158;2023-11-19T16:41:23;24.33;;;14.27;;
77586;SDS011;66744;49.716;17.158;2023-11-19T16:44:24;21.45;;;13.10;;
77586;SDS011;66744;49.716;17.158;2023-11-19T16:47:27;27.65;;;15.75;;
77586;SDS011;66744;49.716;17.158;2023-11-19T16:50:28;22.70;;;14.13;;
77586;SDS011;66744;49.716;17.158;2023-11-19T16:53:30;25.02;;;13.68;;
77586;SDS011;66744;49.716;17.158;2023-11-19T16:56:31;17.90;;;10.60;;
77586;SDS011;66744;49.716;17.158;2023-11-19T16:59:34;21.30;;;12.80;;
77586;SDS011;66744;49.716;17.158;2023-11-19T17:02:36;19.95;;;12.65;;
77586;SDS011;66744;49.716;17.158;2023-11-19T17:05:43;22.38;;;11.93;;
77586;SDS011;66744;49.716;17.158;2023-11-19T17:08:45;19.55;;;12.45;;
77586;SDS011;66744;49.716;17.158;2023-11-19T17:11:46;21.80;;;11.77;;
77586;SDS011;66744;49.716;17.158;2023-11-19T17:14:48;24.70;;;13.73;;
77586;SDS011;66744;49.716;17.158;2023-11-19T17:17:49;24.92;;;13.45;;
77586;SDS011;66744;49.716;17.158;2023-11-19T17:20:50;18.92;;;11.25;;
77586;SDS011;66744;49.716;17.158;2023-11-19T17:23:54;20.75;;;12.05;;
77586;SDS011;66744;49.716;17.158;2023-11-19T17:26:55;19.10;;;11.48;;
77586;SDS011;66744;49.716;17.158;2023-11-19T17:29:56;18.45;;;11.35;;
77586;SDS011;66744;49.716;17.158;2023-11-19T17:32:58;57.53;;;26.67;;
77586;SDS011;66744;49.716;17.158;2023-11-19T17:36:05;56.13;;;25.77;;
77586;SDS011;66744;49.716;17.158;2023-11-19T17:39:07;34.92;;;18.50;;
77586;SDS011;66744;49.716;17.158;2023-11-19T17:42:09;24.60;;;14.15;;
77586;SDS011;66744;49.716;17.158;2023-11-19T17:45:11;19.70;;;11.93;;
77586;SDS011;66744;49.716;17.158;2023-11-19T17:48:12;24.20;;;12.90;;
77586;SDS011;66744;49.716;17.158;2023-11-19T17:51:13;23.70;;;12.85;;
77586;SDS011;66744;49.716;17.158;2023-11-19T17:54:17;30.45;;;15.80;;
77586;SDS011;66744;49.716;17.158;2023-11-19T17:57:19;36.35;;;17.77;;